PBC weather

Hermanos Serdán International Airport
Puebla, Puebla, Mexico

Public forecast

Using degrees Celsius for public forecast. Weather courtesy of forecast.io.

Current aviation weather report (METAR) for Hermanos Serdán International Airport

Retrieved 2019/10/17 01:42 UTC (0 seconds ago):

MMPB 170142Z 32006KT 9SM SCT020 OVC080 15/13 A3024 RMK 8/57/ -RAE25 HZY

Aviation forecast (TAF) for Hermanos Serdán International Airport

Forecast is more than 6 hours old.

Retrieved 2019/10/16 18:49 UTC (7 hours ago):

TAF MMPB 161643Z 1618/1718 36010KT P6SM BKN020 OVC090 FM162000 03012KT P6SM VC RA BKN020CB OVC090 TEMPO 1621/1701 3SM TSRA FM170200 03005KT 6SM -RA BKN020CB OVC090 TEMPO 1702/1706 4SM TSRA FM170800 00000KT 5SM -RA BKN015 OVC080 BECMG 1715/1716 6SM HZ